Time;durP1;ratioP1;P1;durP2;ratioP2;P2;SDS_P1;SDS_P2;PMS_P1;PMS_P2;Temp;Humidity;BMP_temperature;BMP_pressure;BME280_temperature;BME280_humidity;BME280_pressure;Samples;Min_cycle;Max_cycle;Signal;HPM_P1;HPM_P2
2021/01/15 00:00:27;;;;;;;;;;;17.20;51.20;;;;;;5049337;28;20449;-56
2021/01/15 00:02:54;;;;;;;;;;;17.20;51.30;;;;;;5043392;28;19931;-55
2021/01/15 00:05:20;;;;;;;;;;;17.10;51.20;;;;;;5050418;28;19933;-55
2021/01/15 00:07:48;;;;;;;;;;;17.20;51.30;;;;;;5045286;28;19925;-55
2021/01/15 00:10:14;;;;;;;;;;;17.10;51.20;;;;;;5051762;28;19925;-55
2021/01/15 00:12:40;;;;;;;;;;;17.10;51.20;;;;;;5054448;28;19939;-55
2021/01/15 00:15:07;;;;;;;;;;;17.10;51.20;;;;;;5046522;28;19990;-55
2021/01/15 00:17:34;;;;;;;;;;;17.10;51.30;;;;;;5053332;28;20288;-56
2021/01/15 00:20:01;;;;;;;;;;;17.10;51.20;;;;;;5047367;28;19925;-56
2021/01/15 00:22:27;;;;;;;;;;;17.10;51.30;;;;;;5052662;28;19936;-55
2021/01/15 00:24:53;;;;;;;;;;;17.10;51.30;;;;;;5045926;28;19925;-56
2021/01/15 00:27:19;;;;;;;;;;;17.00;51.20;;;;;;5049444;28;19931;-55
2021/01/15 00:29:46;;;;;;;;;;;17.00;51.20;;;;;;5046430;28;19925;-55
2021/01/15 00:32:12;;;;;;;;;;;17.00;51.20;;;;;;5053717;28;19975;-55
2021/01/15 00:34:39;;;;;;;;;;;17.00;51.20;;;;;;5047368;28;19929;-55
2021/01/15 00:37:05;;;;;;;;;;;17.00;51.30;;;;;;5050763;28;19924;-55
2021/01/15 00:39:31;;;;;;;;;;;17.00;51.30;;;;;;5047118;28;20031;-55
2021/01/15 00:41:58;;;;;;;;;;;17.00;51.30;;;;;;5053168;28;20393;-56
2021/01/15 00:44:29;;;;;;;;;;;16.90;51.30;;;;;;5043849;28;24180;-55
2021/01/15 00:46:55;;;;;;;;;;;16.90;51.30;;;;;;5048461;28;19933;-55
2021/01/15 00:49:22;;;;;;;;;;;16.90;51.30;;;;;;5048256;28;19935;-55
2021/01/15 00:51:49;;;;;;;;;;;16.80;51.20;;;;;;5056670;28;19924;-56
2021/01/15 00:54:15;;;;;;;;;;;16.90;51.30;;;;;;5052275;28;19976;-55
2021/01/15 00:56:42;;;;;;;;;;;16.90;51.20;;;;;;5048338;28;19924;-55
2021/01/15 00:59:08;;;;;;;;;;;16.90;51.20;;;;;;5052104;28;19925;-55
2021/01/15 01:01:37;;;;;;;;;;;16.90;51.20;;;;;;5045294;28;19925;-56
2021/01/15 01:04:04;;;;;;;;;;;16.90;51.20;;;;;;5051268;28;19924;-55
2021/01/15 01:06:31;;;;;;;;;;;16.80;51.20;;;;;;5031519;28;19931;-55
2021/01/15 01:08:57;;;;;;;;;;;16.80;51.20;;;;;;5050977;28;19948;-55
2021/01/15 01:11:26;;;;;;;;;;;16.80;51.20;;;;;;5047199;28;19924;-55
2021/01/15 01:13:54;;;;;;;;;;;16.80;51.20;;;;;;5051550;28;19950;-55
2021/01/15 01:16:20;;;;;;;;;;;16.80;51.30;;;;;;5041343;28;19925;-55
2021/01/15 01:18:48;;;;;;;;;;;16.80;51.20;;;;;;5051424;28;20407;-55
2021/01/15 01:21:14;;;;;;;;;;;16.80;51.90;;;;;;5045679;28;19925;-55
2021/01/15 01:23:40;;;;;;;;;;;16.70;51.20;;;;;;5049184;28;19931;-55
2021/01/15 01:26:07;;;;;;;;;;;16.70;51.20;;;;;;5041970;28;19933;-55
2021/01/15 01:28:33;;;;;;;;;;;16.80;51.30;;;;;;5052118;28;19939;-55
2021/01/15 01:31:00;;;;;;;;;;;16.70;51.20;;;;;;5050158;28;19925;-55
2021/01/15 01:33:26;;;;;;;;;;;16.70;51.20;;;;;;5050573;28;19978;-55
2021/01/15 01:35:52;;;;;;;;;;;16.70;51.20;;;;;;5050823;28;19935;-55
2021/01/15 01:38:19;;;;;;;;;;;16.70;51.20;;;;;;5045863;28;20450;-55
2021/01/15 01:40:45;;;;;;;;;;;16.70;51.20;;;;;;5034245;28;19925;-55
2021/01/15 01:43:12;;;;;;;;;;;16.70;51.30;;;;;;5044697;28;20054;-55
2021/01/15 01:45:43;;;;;;;;;;;16.70;51.30;;;;;;5052264;28;19925;-55
2021/01/15 01:48:10;;;;;;;;;;;16.60;51.20;;;;;;5029877;28;19925;-55
2021/01/15 01:50:41;;;;;;;;;;;16.60;51.30;;;;;;5050687;28;19947;-55
2021/01/15 01:53:08;;;;;;;;;;;16.60;51.30;;;;;;5044226;28;19931;-55
2021/01/15 01:55:36;;;;;;;;;;;16.70;51.30;;;;;;5049652;28;20357;-54
2021/01/15 01:58:03;;;;;;;;;;;16.60;51.30;;;;;;5043835;28;19932;-54
2021/01/15 02:00:32;;;;;;;;;;;16.60;51.40;;;;;;5050774;28;20428;-55
2021/01/15 02:02:58;;;;;;;;;;;16.60;51.30;;;;;;5044295;28;19925;-55
2021/01/15 02:05:30;;;;;;;;;;;16.60;51.30;;;;;;5046865;28;19932;-54
2021/01/15 02:07:56;;;;;;;;;;;16.60;51.30;;;;;;5042182;28;19925;-55
2021/01/15 02:10:31;;;;;;;;;;;16.50;51.30;;;;;;5054145;28;19943;-55
2021/01/15 02:13:16;;;;;;;;;;;16.60;51.40;;;;;;5045209;28;20471;-55
2021/01/15 02:16:03;;;;;;;;;;;16.50;51.30;;;;;;5051280;28;19935;-56
2021/01/15 02:18:40;;;;;;;;;;;16.50;51.30;;;;;;5046027;28;19951;-55
2021/01/15 02:21:25;;;;;;;;;;;16.50;51.40;;;;;;5049305;28;19928;-55
2021/01/15 02:23:57;;;;;;;;;;;16.50;51.40;;;;;;5044120;28;20312;-55
2021/01/15 02:26:45;;;;;;;;;;;16.50;51.50;;;;;;5051294;28;19931;-54
2021/01/15 02:29:24;;;;;;;;;;;16.50;51.40;;;;;;5041631;28;20496;-55
2021/01/15 02:32:15;;;;;;;;;;;16.40;51.30;;;;;;5047393;28;20373;-55
2021/01/15 02:34:56;;;;;;;;;;;16.50;51.40;;;;;;5035865;28;19925;-55
2021/01/15 02:37:34;;;;;;;;;;;16.40;51.30;;;;;;5046273;28;19932;-54
2021/01/15 02:40:02;;;;;;;;;;;16.50;51.30;;;;;;5042894;28;19971;-54
2021/01/15 02:42:32;;;;;;;;;;;16.50;51.40;;;;;;5049064;28;19925;-54
2021/01/15 02:44:58;;;;;;;;;;;16.40;51.30;;;;;;5043064;28;19924;-54
2021/01/15 02:47:28;;;;;;;;;;;16.40;51.30;;;;;;5046906;28;19925;-55
2021/01/15 02:49:55;;;;;;;;;;;16.40;51.20;;;;;;5038073;28;19925;-55
2021/01/15 02:52:21;;;;;;;;;;;16.40;51.20;;;;;;5043165;28;20373;-55
2021/01/15 02:54:48;;;;;;;;;;;16.40;51.30;;;;;;5038117;28;20449;-55
2021/01/15 02:57:14;;;;;;;;;;;16.40;51.30;;;;;;5047992;28;19925;-55
2021/01/15 02:59:40;;;;;;;;;;;16.40;51.30;;;;;;5048149;28;19948;-55
2021/01/15 03:02:11;;;;;;;;;;;16.40;51.30;;;;;;5041963;28;20385;-55
2021/01/15 03:04:56;;;;;;;;;;;16.30;51.20;;;;;;5044155;28;19925;-55
2021/01/15 03:07:25;;;;;;;;;;;16.30;51.20;;;;;;5043740;28;19960;-55
2021/01/15 03:09:53;;;;;;;;;;;16.40;51.30;;;;;;5050258;28;19931;-55
2021/01/15 03:12:21;;;;;;;;;;;16.30;51.80;;;;;;5040867;28;19947;-55
2021/01/15 03:14:48;;;;;;;;;;;16.30;51.20;;;;;;5048834;28;19936;-55
2021/01/15 03:17:15;;;;;;;;;;;16.30;51.20;;;;;;5042445;28;19931;-55
2021/01/15 03:19:41;;;;;;;;;;;16.30;51.30;;;;;;5047938;28;19924;-55
2021/01/15 03:22:08;;;;;;;;;;;16.30;51.20;;;;;;5044205;28;19932;-55
2021/01/15 03:24:35;;;;;;;;;;;16.20;51.20;;;;;;5049040;28;19925;-56
2021/01/15 03:27:02;;;;;;;;;;;16.30;51.30;;;;;;5040682;28;20439;-56
2021/01/15 03:29:28;;;;;;;;;;;16.30;51.30;;;;;;5049706;28;19931;-55
2021/01/15 03:31:54;;;;;;;;;;;16.20;51.30;;;;;;5039850;28;19924;-55
2021/01/15 03:34:20;;;;;;;;;;;16.20;51.30;;;;;;5045933;28;19925;-55
2021/01/15 03:36:47;;;;;;;;;;;16.20;51.30;;;;;;5042788;28;19998;-55
2021/01/15 03:39:13;;;;;;;;;;;16.30;51.30;;;;;;5051249;28;19962;-55
2021/01/15 03:41:39;;;;;;;;;;;16.20;51.30;;;;;;5044241;28;19948;-55
2021/01/15 03:44:05;;;;;;;;;;;16.20;51.30;;;;;;5046764;28;19947;-56
2021/01/15 03:46:32;;;;;;;;;;;16.20;51.40;;;;;;5050830;28;19948;-55
2021/01/15 03:48:58;;;;;;;;;;;16.20;51.40;;;;;;5042383;28;20323;-56
2021/01/15 03:51:24;;;;;;;;;;;16.20;51.30;;;;;;5049867;28;19975;-55
2021/01/15 03:53:50;;;;;;;;;;;16.20;51.40;;;;;;5045323;28;19932;-55
2021/01/15 03:56:17;;;;;;;;;;;16.20;51.30;;;;;;5050874;28;20297;-55
2021/01/15 03:58:44;;;;;;;;;;;16.20;51.30;;;;;;5046462;28;19925;-55
2021/01/15 04:01:10;;;;;;;;;;;16.20;51.30;;;;;;5031981;28;19932;-55
2021/01/15 04:03:36;;;;;;;;;;;16.10;51.30;;;;;;5047729;28;19979;-55
2021/01/15 04:06:03;;;;;;;;;;;16.10;51.30;;;;;;5054110;28;20042;-55
2021/01/15 04:08:29;;;;;;;;;;;16.20;51.40;;;;;;5043769;28;19966;-55
2021/01/15 04:10:55;;;;;;;;;;;16.10;51.40;;;;;;5052806;28;19925;-55
2021/01/15 04:13:21;;;;;;;;;;;16.20;51.30;;;;;;5044242;28;19935;-55
2021/01/15 04:15:47;;;;;;;;;;;16.10;51.30;;;;;;5050417;28;19925;-55
2021/01/15 04:18:14;;;;;;;;;;;16.10;51.30;;;;;;5044937;28;19931;-55
2021/01/15 04:20:40;;;;;;;;;;;16.10;51.40;;;;;;5049253;28;19966;-55
2021/01/15 04:23:09;;;;;;;;;;;16.10;51.40;;;;;;5049591;28;19924;-55
2021/01/15 04:25:36;;;;;;;;;;;16.10;51.50;;;;;;5040020;28;19960;-55
2021/01/15 04:28:03;;;;;;;;;;;16.10;51.50;;;;;;5052905;28;19928;-55
2021/01/15 04:30:29;;;;;;;;;;;16.10;51.60;;;;;;5043126;28;19931;-55
2021/01/15 04:32:55;;;;;;;;;;;16.10;51.70;;;;;;5051044;28;20370;-55
2021/01/15 04:35:22;;;;;;;;;;;16.10;51.70;;;;;;5044710;28;19973;-55
2021/01/15 04:37:48;;;;;;;;;;;16.10;51.70;;;;;;5046796;28;19925;-55
2021/01/15 04:40:15;;;;;;;;;;;16.10;51.60;;;;;;5044157;28;19925;-55
2021/01/15 04:42:42;;;;;;;;;;;16.10;51.60;;;;;;5051593;28;19925;-55
2021/01/15 04:45:16;;;;;;;;;;;16.10;51.60;;;;;;5043146;28;19954;-55
2021/01/15 04:47:48;;;;;;;;;;;16.10;51.60;;;;;;5049339;28;19931;-55
2021/01/15 04:50:15;;;;;;;;;;;16.10;51.60;;;;;;5039410;28;19931;-55
2021/01/15 04:52:45;;;;;;;;;;;16.10;51.60;;;;;;5048305;28;19933;-55
2021/01/15 04:55:15;;;;;;;;;;;16.10;51.60;;;;;;5040751;28;19935;-56
2021/01/15 04:57:41;;;;;;;;;;;16.10;51.60;;;;;;5049919;28;19925;-55
2021/01/15 05:00:09;;;;;;;;;;;16.10;51.60;;;;;;5040421;28;19972;-55
2021/01/15 05:02:40;;;;;;;;;;;16.10;51.50;;;;;;5047424;28;20340;-55
2021/01/15 05:05:07;;;;;;;;;;;16.10;51.50;;;;;;5042338;28;19939;-55
2021/01/15 05:07:34;;;;;;;;;;;16.10;51.60;;;;;;5048070;28;19933;-55
2021/01/15 05:10:02;;;;;;;;;;;16.00;51.60;;;;;;5048197;28;19931;-55
2021/01/15 05:12:29;;;;;;;;;;;16.00;51.50;;;;;;5040168;28;19931;-55
2021/01/15 05:14:56;;;;;;;;;;;16.10;51.60;;;;;;5047978;28;19924;-55
2021/01/15 05:17:25;;;;;;;;;;;16.10;51.50;;;;;;5038580;28;19951;-55
2021/01/15 05:19:53;;;;;;;;;;;16.00;51.40;;;;;;5046164;28;19932;-55
2021/01/15 05:22:20;;;;;;;;;;;16.00;51.40;;;;;;5042091;28;19924;-55
2021/01/15 05:24:47;;;;;;;;;;;16.10;51.40;;;;;;5048280;28;19932;-55
2021/01/15 05:30:17;;;;;;;;;;;16.00;51.40;;;;;;5047533;28;19931;-55
2021/01/15 05:32:45;;;;;;;;;;;16.10;51.40;;;;;;5040354;28;20289;-55
2021/01/15 05:35:11;;;;;;;;;;;16.00;51.40;;;;;;5051246;28;19931;-55
2021/01/15 05:37:38;;;;;;;;;;;16.00;51.30;;;;;;5037983;28;19932;-58
2021/01/15 05:40:05;;;;;;;;;;;16.00;51.30;;;;;;5048159;28;19925;-55
2021/01/15 05:43:03;;;;;;;;;;;16.00;51.30;;;;;;5041917;28;20008;-55
2021/01/15 05:45:30;;;;;;;;;;;16.00;51.30;;;;;;5021910;28;19975;-55
2021/01/15 05:47:56;;;;;;;;;;;16.00;51.30;;;;;;5042929;28;19960;-55
2021/01/15 05:50:36;;;;;;;;;;;16.00;51.30;;;;;;5049100;28;20284;-54
2021/01/15 05:53:02;;;;;;;;;;;16.00;51.30;;;;;;5040184;28;19941;-54
2021/01/15 05:55:34;;;;;;;;;;;16.00;51.30;;;;;;5047378;28;20465;-54
2021/01/15 05:58:10;;;;;;;;;;;16.00;51.30;;;;;;5038458;28;20379;-55
2021/01/15 06:00:38;;;;;;;;;;;16.00;51.20;;;;;;5046846;28;19924;-54
2021/01/15 06:03:05;;;;;;;;;;;16.00;51.20;;;;;;5038353;28;19978;-55
2021/01/15 06:05:32;;;;;;;;;;;16.00;51.30;;;;;;5048417;28;19924;-55
2021/01/15 06:07:58;;;;;;;;;;;16.00;51.20;;;;;;5040317;28;20362;-54
2021/01/15 06:10:25;;;;;;;;;;;16.00;51.30;;;;;;5039009;28;19929;-54
2021/01/15 06:12:52;;;;;;;;;;;16.00;51.30;;;;;;5041205;28;20389;-53
2021/01/15 06:15:42;;;;;;;;;;;16.00;51.30;;;;;;5048214;28;19970;-54
2021/01/15 06:18:14;;;;;;;;;;;16.00;51.40;;;;;;5038299;28;19925;-53
2021/01/15 06:20:42;;;;;;;;;;;16.00;51.40;;;;;;5046720;28;19929;-54
2021/01/15 06:23:11;;;;;;;;;;;16.00;51.40;;;;;;5042324;28;19925;-54
2021/01/15 06:25:53;;;;;;;;;;;15.90;51.40;;;;;;5044551;28;19925;-54
2021/01/15 06:28:20;;;;;;;;;;;15.90;51.40;;;;;;5045749;28;19925;-54
2021/01/15 06:30:57;;;;;;;;;;;16.00;51.40;;;;;;5040935;28;19929;-54
2021/01/15 06:33:24;;;;;;;;;;;16.00;51.40;;;;;;5045476;28;19924;-55
2021/01/15 06:35:50;;;;;;;;;;;15.90;51.50;;;;;;5037953;28;19932;-55
2021/01/15 06:38:17;;;;;;;;;;;16.00;51.60;;;;;;5044777;28;19925;-55
2021/01/15 06:40:48;;;;;;;;;;;16.00;51.60;;;;;;5039974;28;19931;-53
2021/01/15 06:43:24;;;;;;;;;;;16.00;51.60;;;;;;5044360;28;20013;-55
2021/01/15 06:45:54;;;;;;;;;;;16.00;52.20;;;;;;5040009;28;19960;-55
2021/01/15 06:48:23;;;;;;;;;;;15.90;51.50;;;;;;5046189;28;20563;-54
2021/01/15 06:50:50;;;;;;;;;;;15.90;51.70;;;;;;5040523;28;19932;-55
2021/01/15 06:53:16;;;;;;;;;;;15.90;51.90;;;;;;5044539;28;19952;-55
2021/01/15 06:55:44;;;;;;;;;;;15.90;52.00;;;;;;5034927;28;19945;-54
2021/01/15 06:58:17;;;;;;;;;;;15.90;52.00;;;;;;5043113;28;19958;-55
2021/01/15 07:00:53;;;;;;;;;;;16.00;51.90;;;;;;5033349;28;20011;-55
2021/01/15 07:03:38;;;;;;;;;;;16.00;52.20;;;;;;5045569;28;19956;-56
2021/01/15 07:06:27;;;;;;;;;;;15.90;52.20;;;;;;5038575;28;19940;-54
2021/01/15 07:08:54;;;;;;;;;;;15.90;52.10;;;;;;5044253;28;20210;-55
2021/01/15 07:11:25;;;;;;;;;;;15.90;52.10;;;;;;5035944;28;19925;-55
2021/01/15 07:13:55;;;;;;;;;;;15.90;52.00;;;;;;5042861;28;19959;-54
2021/01/15 07:16:35;;;;;;;;;;;15.90;51.90;;;;;;5032855;28;19926;-54
2021/01/15 07:19:04;;;;;;;;;;;15.90;51.80;;;;;;5045587;28;19955;-56
2021/01/15 07:21:38;;;;;;;;;;;15.90;51.80;;;;;;5035459;28;19929;-54
2021/01/15 07:24:10;;;;;;;;;;;16.00;51.80;;;;;;5040223;28;19940;-54
2021/01/15 07:26:40;;;;;;;;;;;15.90;51.70;;;;;;5030742;28;19932;-54
2021/01/15 07:29:15;;;;;;;;;;;15.90;51.60;;;;;;5042099;28;19939;-55
2021/01/15 07:31:45;;;;;;;;;;;15.90;51.70;;;;;;5030258;28;19964;-54
2021/01/15 07:34:20;;;;;;;;;;;15.90;51.60;;;;;;5043984;28;19971;-54
2021/01/15 07:36:47;;;;;;;;;;;15.90;51.60;;;;;;5036416;28;19924;-54
2021/01/15 07:39:14;;;;;;;;;;;15.90;51.60;;;;;;5044353;28;19929;-55
2021/01/15 07:41:45;;;;;;;;;;;15.90;51.50;;;;;;5035274;28;21219;-55
2021/01/15 07:44:26;;;;;;;;;;;15.90;51.50;;;;;;5043153;28;19943;-55
2021/01/15 07:46:53;;;;;;;;;;;15.90;51.50;;;;;;5034764;28;20265;-56
2021/01/15 07:49:20;;;;;;;;;;;15.90;51.60;;;;;;5046440;28;19971;-58
2021/01/15 07:52:04;;;;;;;;;;;15.90;51.70;;;;;;5044220;28;19925;-57
2021/01/15 07:54:51;;;;;;;;;;;15.90;52.40;;;;;;5043245;28;19925;-59
2021/01/15 07:57:18;;;;;;;;;;;16.80;53.20;;;;;;5040336;28;20097;-59
2021/01/15 07:59:45;;;;;;;;;;;17.40;52.30;;;;;;5046391;28;20396;-60
2021/01/15 08:02:15;;;;;;;;;;;17.90;51.60;;;;;;5041336;28;20823;-57
2021/01/15 08:04:41;;;;;;;;;;;18.20;50.50;;;;;;5041972;28;19937;-56
2021/01/15 08:07:08;;;;;;;;;;;18.60;50.00;;;;;;5041709;28;20262;-57
2021/01/15 08:09:40;;;;;;;;;;;18.80;49.60;;;;;;5040268;28;19925;-58
2021/01/15 08:12:07;;;;;;;;;;;18.90;49.20;;;;;;5043978;28;19932;-57
2021/01/15 08:14:38;;;;;;;;;;;19.10;48.90;;;;;;5040611;28;19964;-55
2021/01/15 08:17:10;;;;;;;;;;;19.30;48.70;;;;;;5043952;28;20186;-56
2021/01/15 08:19:38;;;;;;;;;;;19.50;48.30;;;;;;5044198;28;19925;-57
2021/01/15 08:22:05;;;;;;;;;;;19.60;47.70;;;;;;5044836;28;19925;-58
2021/01/15 08:24:32;;;;;;;;;;;19.80;47.70;;;;;;5040736;28;20247;-58
2021/01/15 08:26:58;;;;;;;;;;;20.50;46.50;;;;;;5050297;28;19925;-58
2021/01/15 08:29:26;;;;;;;;;;;20.90;45.40;;;;;;5040764;28;20018;-57
2021/01/15 08:31:56;;;;;;;;;;;21.10;45.00;;;;;;5049995;28;19959;-58
2021/01/15 08:34:30;;;;;;;;;;;21.40;44.60;;;;;;5044653;28;19967;-62
2021/01/15 08:36:57;;;;;;;;;;;21.50;44.30;;;;;;5050333;28;20281;-57
2021/01/15 08:39:23;;;;;;;;;;;21.70;44.00;;;;;;5052120;28;19929;-58
2021/01/15 08:41:56;;;;;;;;;;;21.90;43.70;;;;;;5049916;28;19925;-58
2021/01/15 08:44:23;;;;;;;;;;;21.20;42.60;;;;;;5043268;28;19925;-56
2021/01/15 08:46:53;;;;;;;;;;;20.90;42.90;;;;;;5048858;28;19932;-58
2021/01/15 08:49:19;;;;;;;;;;;21.10;43.60;;;;;;5038969;28;20309;-57
2021/01/15 08:51:50;;;;;;;;;;;21.60;43.50;;;;;;5046154;28;19964;-59
2021/01/15 08:54:18;;;;;;;;;;;21.90;43.30;;;;;;5051441;28;19924;-59
2021/01/15 08:56:45;;;;;;;;;;;22.20;43.00;;;;;;5036323;28;19932;-56
2021/01/15 08:59:13;;;;;;;;;;;22.30;43.00;;;;;;5047356;28;19940;-57
2021/01/15 09:01:40;;;;;;;;;;;22.50;42.80;;;;;;5035929;28;19940;-59
2021/01/15 09:04:10;;;;;;;;;;;22.60;42.60;;;;;;5048115;28;19940;-59
2021/01/15 09:06:38;;;;;;;;;;;22.70;42.80;;;;;;5044211;28;19924;-60
2021/01/15 09:09:06;;;;;;;;;;;22.80;42.50;;;;;;5050095;28;19978;-59
2021/01/15 09:11:36;;;;;;;;;;;22.90;42.40;;;;;;5048130;28;19963;-59
2021/01/15 09:14:12;;;;;;;;;;;22.90;42.20;;;;;;5048521;28;19939;-57
2021/01/15 09:16:38;;;;;;;;;;;23.10;42.00;;;;;;5043942;28;19955;-59
2021/01/15 09:19:09;;;;;;;;;;;23.10;41.90;;;;;;5045211;28;19940;-58
2021/01/15 09:21:45;;;;;;;;;;;23.20;41.90;;;;;;5040418;28;19928;-59
2021/01/15 09:24:12;;;;;;;;;;;23.30;41.70;;;;;;5049009;28;19931;-55
2021/01/15 09:26:38;;;;;;;;;;;22.70;39.70;;;;;;5050386;28;19971;-56
2021/01/15 09:29:04;;;;;;;;;;;22.10;41.50;;;;;;5051370;28;20416;-55
2021/01/15 09:31:30;;;;;;;;;;;21.80;43.60;;;;;;5051755;28;20952;-56
2021/01/15 09:33:57;;;;;;;;;;;21.70;45.40;;;;;;5052705;28;19979;-57
2021/01/15 09:36:25;;;;;;;;;;;22.30;44.50;;;;;;5051244;28;19971;-58
2021/01/15 09:38:52;;;;;;;;;;;22.70;43.90;;;;;;5053793;28;19925;-57
2021/01/15 09:41:19;;;;;;;;;;;22.90;43.60;;;;;;5054781;28;19931;-57
2021/01/15 09:43:46;;;;;;;;;;;23.10;43.30;;;;;;5064730;28;20333;-57
2021/01/15 09:46:22;;;;;;;;;;;23.20;42.90;;;;;;5054187;28;19972;-58
2021/01/15 09:48:49;;;;;;;;;;;23.30;42.70;;;;;;5052706;28;19925;-58
2021/01/15 09:51:16;;;;;;;;;;;23.30;42.70;;;;;;5050443;28;20381;-56
2021/01/15 09:53:42;;;;;;;;;;;23.30;42.60;;;;;;5049599;28;19932;-58
2021/01/15 09:56:08;;;;;;;;;;;23.40;42.70;;;;;;5055452;28;19925;-56
2021/01/15 09:58:34;;;;;;;;;;;23.50;42.50;;;;;;5052926;28;19963;-57
2021/01/15 10:01:00;;;;;;;;;;;23.60;42.40;;;;;;5054373;28;19925;-57
2021/01/15 10:03:27;;;;;;;;;;;23.70;42.20;;;;;;5050312;28;19936;-58
2021/01/15 10:05:53;;;;;;;;;;;23.70;42.10;;;;;;5048905;28;20388;-57
2021/01/15 10:08:22;;;;;;;;;;;23.70;42.10;;;;;;5050321;28;19924;-56
2021/01/15 10:10:48;;;;;;;;;;;23.70;42.00;;;;;;5050417;28;19947;-58
2021/01/15 10:13:14;;;;;;;;;;;23.70;42.30;;;;;;5047150;28;19929;-58
2021/01/15 10:15:41;;;;;;;;;;;23.80;42.20;;;;;;5045109;28;19933;-58
2021/01/15 10:18:07;;;;;;;;;;;24.00;42.00;;;;;;5039383;28;19933;-58
2021/01/15 10:20:33;;;;;;;;;;;24.10;41.70;;;;;;5039758;28;19933;-59
2021/01/15 10:22:59;;;;;;;;;;;24.20;41.80;;;;;;5051461;28;20391;-59
2021/01/15 10:25:26;;;;;;;;;;;24.30;41.70;;;;;;5043023;28;20002;-56
2021/01/15 10:27:52;;;;;;;;;;;24.50;41.50;;;;;;5044192;28;20486;-57
2021/01/15 10:30:18;;;;;;;;;;;24.60;41.30;;;;;;5037238;28;19933;-57
2021/01/15 10:32:47;;;;;;;;;;;24.70;41.20;;;;;;5047471;28;20285;-59
2021/01/15 10:35:14;;;;;;;;;;;24.70;41.20;;;;;;5047536;28;19924;-57
2021/01/15 10:37:41;;;;;;;;;;;24.70;41.10;;;;;;5049808;28;20388;-57
2021/01/15 10:40:08;;;;;;;;;;;24.90;41.10;;;;;;5045035;28;19928;-57
2021/01/15 10:42:38;;;;;;;;;;;24.90;41.10;;;;;;5051095;28;19933;-58
2021/01/15 10:45:05;;;;;;;;;;;24.90;41.10;;;;;;5044245;28;19933;-56
2021/01/15 10:47:31;;;;;;;;;;;25.00;41.00;;;;;;5047904;28;19928;-57
2021/01/15 10:50:04;;;;;;;;;;;25.00;40.90;;;;;;5043039;28;19931;-57
2021/01/15 10:52:30;;;;;;;;;;;25.20;41.50;;;;;;5047828;28;19932;-55
2021/01/15 10:54:58;;;;;;;;;;;25.20;40.80;;;;;;5040749;28;19928;-57
2021/01/15 10:57:24;;;;;;;;;;;25.20;40.70;;;;;;5047033;28;19925;-55
2021/01/15 10:59:50;;;;;;;;;;;25.20;40.60;;;;;;5044793;28;20427;-56
2021/01/15 11:02:17;;;;;;;;;;;25.30;40.60;;;;;;5049973;28;19925;-59
2021/01/15 11:04:43;;;;;;;;;;;25.40;40.50;;;;;;5044285;28;19986;-58
2021/01/15 11:07:09;;;;;;;;;;;25.40;40.50;;;;;;5035294;28;19925;-59
2021/01/15 11:09:35;;;;;;;;;;;25.40;40.30;;;;;;5042829;28;19925;-57
2021/01/15 11:12:06;;;;;;;;;;;25.50;40.40;;;;;;5035718;28;19931;-58
2021/01/15 11:14:32;;;;;;;;;;;24.90;39.00;;;;;;5045119;28;20404;-60
2021/01/15 11:16:58;;;;;;;;;;;23.80;40.10;;;;;;5037757;28;19925;-59
2021/01/15 11:19:25;;;;;;;;;;;23.10;41.60;;;;;;5043179;28;19964;-59
2021/01/15 11:21:51;;;;;;;;;;;22.70;42.90;;;;;;5022699;28;19929;-59
2021/01/15 11:24:18;;;;;;;;;;;22.30;43.90;;;;;;5043191;28;19933;-60
2021/01/15 11:26:45;;;;;;;;;;;22.10;44.60;;;;;;5037570;28;19964;-60
2021/01/15 11:29:12;;;;;;;;;;;21.90;45.10;;;;;;5046915;28;19931;-59
2021/01/15 11:31:39;;;;;;;;;;;21.80;45.40;;;;;;5036169;28;19951;-58
2021/01/15 11:34:05;;;;;;;;;;;21.60;45.80;;;;;;5045926;28;19925;-59
2021/01/15 11:36:32;;;;;;;;;;;21.50;46.30;;;;;;5035448;28;20260;-59
2021/01/15 11:38:59;;;;;;;;;;;21.30;46.50;;;;;;5046595;28;19964;-60
2021/01/15 11:41:25;;;;;;;;;;;21.20;46.70;;;;;;5044443;28;19928;-59
2021/01/15 11:43:51;;;;;;;;;;;21.10;47.50;;;;;;5038864;28;19968;-60
2021/01/15 11:46:19;;;;;;;;;;;21.10;47.10;;;;;;5044104;28;20304;-59
2021/01/15 11:48:49;;;;;;;;;;;21.00;47.20;;;;;;5036091;28;19939;-59
2021/01/15 11:51:15;;;;;;;;;;;21.20;47.20;;;;;;5048547;28;19924;-59
2021/01/15 11:53:42;;;;;;;;;;;22.20;45.80;;;;;;5035322;28;20636;-57
2021/01/15 11:56:08;;;;;;;;;;;23.00;44.20;;;;;;5045619;28;19924;-58
2021/01/15 11:58:35;;;;;;;;;;;23.50;43.20;;;;;;5040402;28;19925;-59
2021/01/15 12:01:02;;;;;;;;;;;23.70;42.80;;;;;;5051568;28;19924;-59
2021/01/15 12:03:28;;;;;;;;;;;24.00;42.40;;;;;;5047333;28;19925;-54
2021/01/15 12:05:54;;;;;;;;;;;23.40;41.80;;;;;;5055124;28;19935;-54
2021/01/15 12:08:22;;;;;;;;;;;22.80;43.50;;;;;;5048655;28;19952;-55
2021/01/15 12:10:54;;;;;;;;;;;22.40;44.90;;;;;;5057655;28;19931;-54
2021/01/15 12:13:21;;;;;;;;;;;22.20;45.60;;;;;;5047575;28;20385;-54
2021/01/15 12:15:48;;;;;;;;;;;22.20;45.80;;;;;;5048032;28;20294;-55
2021/01/15 12:18:15;;;;;;;;;;;22.10;46.00;;;;;;5042239;28;19940;-54
2021/01/15 12:20:41;;;;;;;;;;;22.10;46.20;;;;;;5055445;28;19979;-54
2021/01/15 12:23:07;;;;;;;;;;;22.10;46.20;;;;;;5053551;28;20312;-54
2021/01/15 12:25:38;;;;;;;;;;;22.20;46.40;;;;;;5046544;28;19968;-54
2021/01/15 12:28:06;;;;;;;;;;;22.20;46.30;;;;;;5053052;28;19925;-55
2021/01/15 12:30:32;;;;;;;;;;;22.20;46.30;;;;;;5043771;28;19932;-55
2021/01/15 12:33:03;;;;;;;;;;;22.20;46.20;;;;;;5052770;28;19924;-54
2021/01/15 12:35:40;;;;;;;;;;;22.20;46.40;;;;;;5045523;28;20018;-54
2021/01/15 12:38:07;;;;;;;;;;;22.10;46.40;;;;;;5051094;28;20396;-56
2021/01/15 12:40:35;;;;;;;;;;;22.20;46.60;;;;;;5044548;28;19930;-55
2021/01/15 12:43:01;;;;;;;;;;;22.20;46.40;;;;;;5061370;28;19925;-57
2021/01/15 12:45:27;;;;;;;;;;;22.60;46.70;;;;;;5060061;28;19932;-59
2021/01/15 12:47:54;;;;;;;;;;;23.20;45.50;;;;;;5055953;28;20307;-57
2021/01/15 12:50:20;;;;;;;;;;;23.60;44.80;;;;;;5061930;28;19956;-57
2021/01/15 12:52:46;;;;;;;;;;;23.80;44.10;;;;;;5060658;28;20253;-60
2021/01/15 12:55:33;;;;;;;;;;;24.00;43.80;;;;;;5051044;28;19931;-57
2021/01/15 12:58:00;;;;;;;;;;;24.10;43.50;;;;;;5049599;28;20280;-56
2021/01/15 13:00:27;;;;;;;;;;;24.20;43.20;;;;;;5051953;28;19960;-56
2021/01/15 13:02:53;;;;;;;;;;;24.30;43.00;;;;;;5054017;28;19929;-56
2021/01/15 13:05:20;;;;;;;;;;;24.40;42.80;;;;;;5053747;28;19925;-57
2021/01/15 13:07:46;;;;;;;;;;;24.50;42.60;;;;;;5055613;28;19925;-59
2021/01/15 13:10:13;;;;;;;;;;;24.50;42.50;;;;;;5056441;28;20027;-56
2021/01/15 13:12:39;;;;;;;;;;;24.70;42.50;;;;;;5055684;28;19924;-58
2021/01/15 13:18:28;;;;;;;;;;;24.80;42.20;;;;;;5050323;28;19924;-58
2021/01/15 13:20:54;;;;;;;;;;;24.50;42.30;;;;;;5052717;28;19939;-59
2021/01/15 13:23:20;;;;;;;;;;;24.00;44.10;;;;;;5054670;28;19928;-58
2021/01/15 13:26:00;;;;;;;;;;;23.60;44.40;;;;;;5049963;28;19971;-56
2021/01/15 13:28:26;;;;;;;;;;;23.20;45.60;;;;;;5051691;28;20304;-57
2021/01/15 13:30:52;;;;;;;;;;;23.00;45.20;;;;;;5056139;28;19931;-56
2021/01/15 13:33:20;;;;;;;;;;;22.80;45.40;;;;;;5049268;28;19935;-56
2021/01/15 13:39:08;;;;;;;;;;;22.60;45.70;;;;;;5047664;28;19916;-56
2021/01/15 13:41:38;;;;;;;;;;;22.50;46.10;;;;;;5051138;28;19925;-57
2021/01/15 13:44:07;;;;;;;;;;;22.40;46.20;;;;;;5055582;28;19933;-56
2021/01/15 13:46:34;;;;;;;;;;;22.40;46.20;;;;;;5055458;28;19935;-58
2021/01/15 13:49:01;;;;;;;;;;;22.30;46.30;;;;;;5051375;28;19925;-58
2021/01/15 13:51:27;;;;;;;;;;;22.30;46.30;;;;;;5054093;28;19925;-58
2021/01/15 13:53:53;;;;;;;;;;;22.20;46.00;;;;;;5057072;28;19979;-57
2021/01/15 13:56:20;;;;;;;;;;;22.00;45.60;;;;;;5056565;28;19994;-56
2021/01/15 13:58:46;;;;;;;;;;;21.60;46.90;;;;;;5047965;28;19925;-56
2021/01/15 14:01:12;;;;;;;;;;;21.30;47.70;;;;;;5046987;28;19964;-59
2021/01/15 14:03:39;;;;;;;;;;;21.40;47.90;;;;;;5042187;28;19928;-59
2021/01/15 14:06:11;;;;;;;;;;;21.90;46.90;;;;;;5048770;28;20318;-58
2021/01/15 14:08:37;;;;;;;;;;;22.50;45.70;;;;;;5046256;28;19965;-60
2021/01/15 14:11:03;;;;;;;;;;;23.20;44.40;;;;;;5049759;28;19932;-58
2021/01/15 14:13:30;;;;;;;;;;;23.70;43.40;;;;;;5036020;28;20606;-59
2021/01/15 14:15:56;;;;;;;;;;;24.00;42.90;;;;;;5046975;28;19940;-59
2021/01/15 14:18:22;;;;;;;;;;;24.30;42.60;;;;;;5036149;28;19929;-58
2021/01/15 14:20:48;;;;;;;;;;;24.40;42.30;;;;;;5040574;28;20220;-57
2021/01/15 14:23:15;;;;;;;;;;;24.60;42.00;;;;;;5046414;28;19924;-59
2021/01/15 14:25:42;;;;;;;;;;;24.70;41.90;;;;;;5045083;28;19932;-58
2021/01/15 14:28:09;;;;;;;;;;;24.80;41.80;;;;;;5049674;28;20538;-59
2021/01/15 14:30:35;;;;;;;;;;;24.90;41.60;;;;;;5039552;28;19925;-59
2021/01/15 14:33:01;;;;;;;;;;;25.00;41.50;;;;;;5051090;28;19931;-59